Time;durP1;ratioP1;P1;durP2;ratioP2;P2;SDS_P1;SDS_P2;PMS_P1;PMS_P2;Temp;Humidity;BMP_temperature;BMP_pressure;BME280_temperature;BME280_humidity;BME280_pressure;Samples;Min_cycle;Max_cycle;Signal;HPM_P1;HPM_P2
2022/12/17 13:06:54;;;;;;;80.45;42.15;;;-2.00;99.90;;;;;;6191687;23;20195;-83
2022/12/17 13:09:32;;;;;;;102.50;41.97;;;-2.10;99.90;;;;;;6193549;23;20235;-83
2022/12/17 13:12:28;;;;;;;87.13;43.42;;;-2.10;99.90;;;;;;6197688;23;20160;-84
2022/12/17 13:15:09;;;;;;;90.60;42.85;;;-2.20;99.90;;;;;;6191584;23;20239;-83
2022/12/17 13:17:44;;;;;;;86.82;41.95;;;-2.20;99.90;;;;;;6193896;23;20231;-82
2022/12/17 13:20:30;;;;;;;92.22;43.30;;;-2.00;99.90;;;;;;6191963;23;20232;-83
2022/12/17 13:23:15;;;;;;;92.78;45.08;;;-2.00;99.90;;;;;;6192591;23;20188;-83
2022/12/17 13:25:43;;;;;;;84.20;42.67;;;-2.00;99.90;;;;;;6192073;23;20203;-82
2022/12/17 13:28:28;;;;;;;88.45;44.90;;;-2.00;99.90;;;;;;6192392;23;20196;-83
2022/12/17 13:31:14;;;;;;;85.40;41.72;;;-2.10;99.90;;;;;;6191596;23;20678;-84
2022/12/17 13:34:01;;;;;;;88.75;43.03;;;-2.20;99.90;;;;;;6194197;23;20175;-84
2022/12/17 13:36:36;;;;;;;86.93;38.92;;;-2.30;99.90;;;;;;6193417;23;20167;-84
2022/12/17 13:39:24;;;;;;;77.95;39.08;;;-2.30;99.90;;;;;;6193876;23;20169;-85
2022/12/17 13:41:57;;;;;;;105.38;45.72;;;-2.30;99.90;;;;;;6195519;23;20172;-83
2022/12/17 13:44:40;;;;;;;92.15;44.35;;;-2.40;99.90;;;;;;6177215;23;20185;-83
2022/12/17 13:47:23;;;;;;;90.55;39.13;;;-2.40;99.90;;;;;;6198966;23;20180;-83
2022/12/17 13:49:56;;;;;;;84.45;39.80;;;-2.40;99.90;;;;;;6195607;23;20203;-83
2022/12/17 13:52:45;;;;;;;87.20;40.80;;;-2.50;99.90;;;;;;6192645;23;20180;-81
2022/12/17 13:55:24;;;;;;;86.40;40.42;;;-2.40;99.90;;;;;;6190528;23;20184;-82
2022/12/17 13:57:52;;;;;;;83.40;38.33;;;-2.40;99.90;;;;;;6190406;23;20231;-82
2022/12/17 14:00:26;;;;;;;83.43;39.45;;;-2.30;99.90;;;;;;6191825;23;20605;-83
2022/12/17 14:02:54;;;;;;;80.90;38.00;;;-2.50;99.90;;;;;;6192063;23;20218;-82
2022/12/17 14:05:31;;;;;;;80.25;39.55;;;-2.50;99.90;;;;;;6190322;23;20446;-81
2022/12/17 14:08:02;;;;;;;88.32;41.80;;;-2.50;99.90;;;;;;6195027;23;20203;-81
2022/12/17 14:10:31;;;;;;;82.43;42.28;;;-2.50;99.90;;;;;;6205614;23;20229;-83
2022/12/17 14:13:11;;;;;;;86.57;46.22;;;-2.50;99.90;;;;;;6204056;23;20184;-83
2022/12/17 14:15:48;;;;;;;78.10;38.60;;;-2.40;99.90;;;;;;6187738;23;20332;-81
2022/12/17 14:18:20;;;;;;;78.25;38.60;;;-2.50;99.90;;;;;;6191531;23;20236;-79
2022/12/17 14:20:54;;;;;;;70.15;36.83;;;-2.60;99.90;;;;;;6190391;23;20208;-83
2022/12/17 14:23:32;;;;;;;78.82;38.90;;;-2.60;99.90;;;;;;6192311;23;20259;-82
2022/12/17 14:25:59;;;;;;;75.97;36.13;;;-2.60;99.90;;;;;;6190072;23;20180;-82
2022/12/17 14:28:49;;;;;;;80.80;35.78;;;-2.70;99.90;;;;;;6190342;23;20500;-84
2022/12/17 14:31:27;;;;;;;93.22;39.10;;;-2.70;99.90;;;;;;6192228;23;20158;-83
2022/12/17 14:34:15;;;;;;;80.25;35.05;;;-2.80;99.90;;;;;;6191377;23;20186;-82
2022/12/17 14:36:46;;;;;;;91.80;38.90;;;-2.70;99.90;;;;;;6193766;23;20179;-84
2022/12/17 14:39:27;;;;;;;76.82;38.83;;;-2.70;99.90;;;;;;6193301;23;20193;-83
2022/12/17 14:42:28;;;;;;;76.38;37.22;;;-2.60;99.90;;;;;;6195822;23;20309;-83
2022/12/17 14:45:02;;;;;;;81.68;37.50;;;-2.70;99.90;;;;;;6205755;23;20149;-83
2022/12/17 14:47:34;;;;;;;78.72;33.47;;;-2.80;99.90;;;;;;6209418;23;20168;-82
2022/12/17 14:50:06;;;;;;;82.72;36.20;;;-2.90;99.90;;;;;;6211159;23;20160;-83
2022/12/17 14:52:48;;;;;;;87.38;35.15;;;-3.00;99.90;;;;;;6210719;23;20171;-84
2022/12/17 14:55:26;;;;;;;74.72;35.85;;;-3.00;99.90;;;;;;6181026;23;20188;-80
2022/12/17 14:58:08;;;;;;;77.88;36.67;;;-3.00;99.90;;;;;;6200961;23;20196;-82
2022/12/17 15:01:11;;;;;;;76.22;34.60;;;-3.00;99.90;;;;;;6201238;23;20185;-83
2022/12/17 15:03:47;;;;;;;82.85;37.17;;;-3.00;99.90;;;;;;6202507;23;20442;-84
2022/12/17 15:06:18;;;;;;;75.10;35.50;;;-3.00;99.90;;;;;;6205672;23;20235;-84
2022/12/17 15:08:48;;;;;;;68.30;35.03;;;-3.10;99.90;;;;;;6203323;23;20208;-82
2022/12/17 15:11:19;;;;;;;76.28;35.90;;;-3.20;99.90;;;;;;6203793;23;20187;-83
2022/12/17 15:13:52;;;;;;;89.53;35.25;;;-3.20;99.90;;;;;;6197285;23;20177;-84
2022/12/17 15:16:33;;;;;;;80.55;37.90;;;-3.20;99.90;;;;;;6195398;23;20172;-85
2022/12/17 15:19:11;;;;;;;73.32;38.20;;;-3.10;99.90;;;;;;6196300;23;20223;-85
2022/12/17 15:21:44;;;;;;;70.50;32.33;;;-3.10;99.90;;;;;;6197216;23;20233;-84
2022/12/17 15:24:18;;;;;;;66.90;33.10;;;-3.10;99.90;;;;;;6196510;23;20203;-86
2022/12/17 15:26:57;;;;;;;69.95;30.55;;;-3.10;99.90;;;;;;6194365;23;20156;-84
2022/12/17 15:29:26;;;;;;;78.65;33.78;;;-3.20;99.90;;;;;;6195353;23;20180;-84
2022/12/17 15:31:58;;;;;;;76.82;33.97;;;-3.30;99.90;;;;;;6197659;23;20163;-82
2022/12/17 15:34:41;;;;;;;76.47;30.45;;;-3.20;99.90;;;;;;6196016;23;20374;-84
2022/12/17 15:37:11;;;;;;;66.57;32.40;;;-3.10;99.90;;;;;;6199831;23;20176;-84
2022/12/17 15:39:59;;;;;;;65.95;32.35;;;-3.00;99.90;;;;;;6199291;23;20247;-85
2022/12/17 15:45:48;;;;;;;65.75;28.00;;;-2.90;99.90;;;;;;6198634;23;20167;-84
2022/12/17 15:48:24;;;;;;;62.05;30.67;;;-2.90;99.90;;;;;;6195938;23;20227;-86
2022/12/17 15:51:10;;;;;;;73.53;32.78;;;-2.80;99.90;;;;;;6192521;23;20188;-86
2022/12/17 15:53:53;;;;;;;70.75;28.95;;;-2.80;99.90;;;;;;6200744;23;20263;-85
2022/12/17 15:57:07;;;;;;;69.82;29.70;;;-2.90;99.90;;;;;;6203531;23;20186;-84
2022/12/17 15:59:44;;;;;;;55.60;28.13;;;-2.90;99.90;;;;;;6200776;23;20184;-85
2022/12/17 16:02:35;;;;;;;69.35;32.97;;;-2.80;99.90;;;;;;6207301;23;20202;-83
2022/12/17 16:05:03;;;;;;;64.95;30.35;;;-2.80;99.90;;;;;;6200682;23;20204;-83
2022/12/17 16:07:36;;;;;;;55.25;27.00;;;-2.90;99.90;;;;;;6196509;23;20168;-84
2022/12/17 16:10:05;;;;;;;56.70;26.20;;;-2.90;99.90;;;;;;6200915;23;20219;-86
2022/12/17 16:12:34;;;;;;;56.90;27.73;;;-2.90;99.90;;;;;;6208277;23;20190;-87
2022/12/17 16:15:02;;;;;;;59.15;27.60;;;-2.90;99.90;;;;;;6203838;23;20245;-85
2022/12/17 16:17:30;;;;;;;54.45;27.05;;;-2.90;99.90;;;;;;6173004;23;20192;-84
2022/12/17 16:20:00;;;;;;;52.88;25.20;;;-3.00;99.90;;;;;;6175732;23;20186;-87
2022/12/17 16:22:30;;;;;;;47.47;26.95;;;-3.00;99.90;;;;;;6173573;23;20263;-86
2022/12/17 16:25:01;;;;;;;46.22;22.38;;;-3.00;99.90;;;;;;6202510;23;20454;-89
2022/12/17 16:27:28;;;;;;;53.40;25.20;;;-2.90;99.90;;;;;;6196790;23;20231;-86
2022/12/17 16:29:57;;;;;;;38.90;21.00;;;-2.70;99.90;;;;;;6195218;23;20180;-86
2022/12/17 16:32:32;;;;;;;47.30;22.20;;;-2.90;99.90;;;;;;6194570;23;20184;-87
2022/12/17 16:35:07;;;;;;;41.55;20.80;;;-2.90;99.90;;;;;;6193887;23;20187;-88
2022/12/17 16:37:36;;;;;;;49.42;21.90;;;-3.00;99.90;;;;;;6194374;23;20172;-85
2022/12/17 16:40:05;;;;;;;51.33;24.67;;;-3.10;99.90;;;;;;6193006;23;20201;-86
2022/12/17 16:42:33;;;;;;;44.60;21.80;;;-3.00;99.90;;;;;;6194236;23;20714;-87
2022/12/17 16:45:02;;;;;;;52.78;22.45;;;-2.90;99.90;;;;;;6193596;23;20196;-84
2022/12/17 16:47:31;;;;;;;70.18;34.45;;;-2.90;99.90;;;;;;6203495;23;20222;-91
2022/12/17 16:49:59;;;;;;;54.17;26.27;;;-2.90;99.90;;;;;;6209211;23;20214;-88
2022/12/17 16:52:29;;;;;;;49.55;23.05;;;-3.00;99.90;;;;;;6210639;23;20168;-90
2022/12/17 16:54:57;;;;;;;45.33;23.95;;;-3.00;99.90;;;;;;6207240;23;20219;-87
2022/12/17 16:57:25;;;;;;;46.80;24.48;;;-3.00;99.90;;;;;;6199125;23;20244;-87
2022/12/17 16:59:54;;;;;;;55.13;26.48;;;-2.80;99.90;;;;;;6197702;23;20259;-86
2022/12/17 17:02:22;;;;;;;53.00;21.90;;;-2.90;99.90;;;;;;6175242;23;20184;-85
2022/12/17 17:04:55;;;;;;;48.88;22.25;;;-2.90;99.90;;;;;;6198107;23;20180;-87
2022/12/17 17:07:22;;;;;;;52.90;26.38;;;-2.90;99.90;;;;;;6197636;23;20176;-87
2022/12/17 17:09:50;;;;;;;54.13;26.73;;;-2.80;99.90;;;;;;6205069;23;20177;-87
2022/12/17 17:12:19;;;;;;;45.05;21.55;;;-2.90;99.90;;;;;;6200164;23;20180;-85
2022/12/17 17:14:53;;;;;;;49.90;25.42;;;-2.90;99.90;;;;;;6196211;23;20184;-88
2022/12/17 17:17:21;;;;;;;56.00;26.02;;;-3.00;99.90;;;;;;6194234;23;20251;-85
2022/12/17 17:20:14;;;;;;;47.67;25.05;;;-3.00;99.90;;;;;;6194978;23;20165;-86
2022/12/17 17:22:47;;;;;;;42.10;20.88;;;-3.40;99.90;;;;;;6194698;23;20184;-86
2022/12/17 17:25:21;;;;;;;47.63;24.05;;;-3.00;99.90;;;;;;6196454;23;20222;-85
2022/12/17 17:27:51;;;;;;;59.28;25.55;;;-2.90;99.90;;;;;;6196623;23;20508;-88
2022/12/17 17:30:19;;;;;;;48.38;24.35;;;-2.90;99.90;;;;;;6195449;23;20206;-86
2022/12/17 17:32:55;;;;;;;48.25;24.23;;;-2.80;99.90;;;;;;6192480;23;20238;-84
2022/12/17 17:35:25;;;;;;;46.00;23.65;;;-2.90;99.90;;;;;;6194306;23;20235;-87
2022/12/17 17:37:55;;;;;;;53.28;22.55;;;-3.00;99.90;;;;;;6196554;23;20239;-85
2022/12/17 17:40:25;;;;;;;49.05;24.50;;;-2.90;99.90;;;;;;6171171;23;20181;-86
2022/12/17 17:42:55;;;;;;;45.33;22.73;;;-2.90;99.90;;;;;;6171304;23;20506;-86
2022/12/17 17:45:25;;;;;;;60.97;24.42;;;-2.90;99.90;;;;;;6196915;23;20178;-87
2022/12/17 17:48:02;;;;;;;50.20;23.88;;;-2.90;99.90;;;;;;6196398;23;20482;-86
2022/12/17 17:50:30;;;;;;;52.72;22.85;;;-2.90;99.90;;;;;;6197079;23;20183;-88
2022/12/17 17:52:57;;;;;;;52.08;23.10;;;-3.00;99.90;;;;;;6197158;23;20185;-86
2022/12/17 17:55:38;;;;;;;53.72;24.33;;;-2.80;99.90;;;;;;6198052;23;20172;-85
2022/12/17 17:58:06;;;;;;;44.05;23.55;;;-2.90;99.90;;;;;;6196960;23;20227;-88
2022/12/17 18:00:36;;;;;;;58.95;23.40;;;-2.80;99.90;;;;;;6195426;23;20378;-86
2022/12/17 18:03:07;;;;;;;54.63;23.52;;;-2.80;99.90;;;;;;6195146;23;20227;-86
2022/12/17 18:05:42;;;;;;;47.28;23.88;;;-2.80;99.90;;;;;;6196358;23;20183;-87
2022/12/17 18:08:10;;;;;;;58.28;26.88;;;-2.80;99.90;;;;;;6205015;23;20180;-91
2022/12/17 18:10:40;;;;;;;46.15;22.58;;;-2.80;99.90;;;;;;6197679;23;20193;-83
2022/12/17 18:16:00;;;;;;;46.10;23.95;;;-2.80;99.90;;;;;;6195803;23;20212;-86
2022/12/17 18:18:27;;;;;;;50.78;24.30;;;-3.00;99.90;;;;;;6175321;23;20275;-83
2022/12/17 18:24:44;;;;;;;44.78;24.83;;;-2.70;99.90;;;;;;6200475;23;20138;-86
2022/12/17 18:31:33;;;;;;;47.42;23.90;;;-2.80;99.90;;;;;;6199395;23;20268;-86
2022/12/17 18:56:34;;;;;;;60.67;26.92;;;-2.80;99.90;;;;;;6208536;23;20176;-84
2022/12/17 18:59:27;;;;;;;57.00;28.33;;;-2.80;99.90;;;;;;6204559;23;20223;-85
2022/12/17 19:06:17;;;;;;;61.25;31.40;;;-2.80;99.90;;;;;;6205297;23;20144;-85
2022/12/17 19:08:52;;;;;;;55.60;29.13;;;-2.80;99.90;;;;;;6180638;23;20513;-84
2022/12/17 19:11:20;;;;;;;60.63;28.60;;;-2.90;99.90;;;;;;6201962;23;20160;-85
2022/12/17 19:13:50;;;;;;;60.38;29.60;;;-2.90;99.90;;;;;;6202777;23;20153;-86
2022/12/17 19:20:27;;;;;;;56.63;27.90;;;-3.00;99.90;;;;;;6201877;23;20177;-83
2022/12/17 19:23:34;;;;;;;56.67;28.17;;;-2.90;99.90;;;;;;6200993;23;20161;-84
2022/12/17 19:26:17;;;;;;;51.38;25.55;;;-3.00;99.90;;;;;;6200662;23;20171;-83
2022/12/17 19:29:26;;;;;;;48.70;23.00;;;-3.10;99.90;;;;;;6201048;23;20176;-83
2022/12/17 19:31:55;;;;;;;45.33;24.13;;;-3.20;99.90;;;;;;6199815;23;20378;-84
2022/12/17 19:34:25;;;;;;;55.05;25.88;;;-3.10;99.90;;;;;;6183128;23;20473;-84
2022/12/17 19:36:54;;;;;;;58.90;26.90;;;-3.10;99.90;;;;;;6203955;23;20211;-85
2022/12/17 19:39:22;;;;;;;47.33;23.83;;;-3.20;99.90;;;;;;6200890;23;20196;-84
2022/12/17 19:41:51;;;;;;;50.42;28.15;;;-3.20;99.90;;;;;;6205959;23;20224;-85
2022/12/17 19:44:25;;;;;;;71.55;32.42;;;-3.30;99.90;;;;;;6203050;23;20185;-83
2022/12/17 19:47:30;;;;;;;54.88;29.40;;;-3.40;99.90;;;;;;6202161;23;20510;-84
2022/12/17 19:50:02;;;;;;;57.65;29.05;;;-3.20;99.90;;;;;;6201538;23;20199;-85
2022/12/17 19:52:41;;;;;;;52.35;26.40;;;-3.20;99.90;;;;;;6068854;23;20178;-84
2022/12/17 19:59:22;;;;;;;56.13;26.02;;;-3.40;99.90;;;;;;6112474;23;20189;-85
2022/12/17 20:05:45;;;;;;;62.72;25.83;;;-3.40;99.90;;;;;;6108381;23;20159;-86
2022/12/17 20:09:08;;;;;;;50.63;24.50;;;-3.40;99.90;;;;;;6105714;23;20203;-84
2022/12/17 20:11:37;;;;;;;58.70;26.63;;;-3.60;99.90;;;;;;6180276;23;20177;-85
2022/12/17 20:30:19;;;;;;;57.85;27.27;;;-3.60;99.90;;;;;;6202276;23;20211;-85
2022/12/17 20:48:28;;;;;;;62.03;32.53;;;-3.40;99.90;;;;;;6205128;23;20147;-85
2022/12/17 20:59:13;;;;;;;53.95;26.15;;;-3.60;99.90;;;;;;6205456;23;20175;-86
2022/12/17 21:20:18;;;;;;;75.57;35.22;;;-3.60;99.90;;;;;;6208118;23;20181;-86
2022/12/17 21:26:53;;;;;;;79.18;33.70;;;-3.50;99.90;;;;;;6152955;23;20161;-85
2022/12/17 21:49:24;;;;;;;66.45;25.75;;;-3.20;99.90;;;;;;6194859;23;20159;-85
2022/12/17 21:56:41;;;;;;;51.03;23.90;;;-3.30;99.90;;;;;;6205992;23;20202;-84
2022/12/17 21:59:18;;;;;;;45.95;25.30;;;-3.30;99.90;;;;;;6206869;23;20184;-86
2022/12/17 22:01:47;;;;;;;56.28;27.73;;;-3.20;99.90;;;;;;6203778;23;20176;-85
2022/12/17 22:05:02;;;;;;;57.13;28.13;;;-3.10;99.90;;;;;;6024571;23;20260;-84
2022/12/17 22:11:38;;;;;;;53.80;28.30;;;-2.60;99.90;;;;;;6210585;23;20133;-86
2022/12/17 22:17:52;;;;;;;57.38;25.58;;;-2.60;99.90;;;;;;6213425;23;20171;-83
2022/12/17 22:20:24;;;;;;;52.47;24.33;;;-2.70;99.90;;;;;;6212773;23;20184;-86
2022/12/17 22:23:07;;;;;;;46.78;25.75;;;-2.80;99.90;;;;;;6212913;23;20225;-86
2022/12/17 22:25:40;;;;;;;44.47;23.65;;;-2.90;99.90;;;;;;6182942;23;20259;-89
2022/12/17 22:28:07;;;;;;;44.28;24.58;;;-2.90;99.90;;;;;;6185976;23;20173;-86
2022/12/17 22:36:04;;;;;;;49.03;25.00;;;-2.80;99.90;;;;;;6191274;23;20212;-90
2022/12/17 22:38:53;;;;;;;58.08;26.67;;;-2.90;99.90;;;;;;6206526;23;20200;-85
2022/12/17 22:44:51;;;;;;;44.42;22.63;;;-2.90;99.90;;;;;;6207333;23;20179;-91
2022/12/17 22:47:27;;;;;;;50.42;27.17;;;-2.90;99.90;;;;;;6210037;23;20163;-87
2022/12/17 22:49:57;;;;;;;46.05;22.50;;;-2.80;99.90;;;;;;6197917;23;20242;-85
2022/12/17 22:52:25;;;;;;;55.08;24.13;;;-2.70;99.90;;;;;;6199094;23;20165;-87
2022/12/17 22:54:57;;;;;;;45.08;26.33;;;-2.80;99.90;;;;;;6200194;23;20157;-86
2022/12/17 22:57:28;;;;;;;51.38;25.17;;;-2.80;99.90;;;;;;6199390;23;20188;-88
2022/12/17 23:31:41;;;;;;;53.90;24.52;;;-2.80;99.90;;;;;;6136788;23;20177;-83
2022/12/17 23:38:32;;;;;;;55.65;25.30;;;-2.90;99.90;;;;;;6136157;23;20188;-84
2022/12/17 23:45:13;;;;;;;41.75;21.15;;;-2.90;99.90;;;;;;6199518;23;20440;-84
2022/12/17 23:47:59;;;;;;;48.00;22.77;;;-3.10;99.90;;;;;;6200496;23;20433;-87
2022/12/17 23:50:26;;;;;;;48.95;25.23;;;-3.10;99.90;;;;;;6198741;23;20169;-87
2022/12/17 23:52:53;;;;;;;46.13;22.33;;;-3.10;99.90;;;;;;6196232;23;20609;-87
2022/12/17 23:55:23;;;;;;;58.17;28.63;;;-3.10;99.90;;;;;;6194484;23;20184;-87
2022/12/17 23:57:55;;;;;;;54.55;22.92;;;-3.00;99.90;;;;;;6194220;23;20193;-87
